createdAt,value
2018-07-29T00:01:44.571Z,9.86
2018-07-29T00:04:18.593Z,9.00
2018-07-29T00:06:50.116Z,8.67
2018-07-29T00:09:21.501Z,9.33
2018-07-29T00:11:53.559Z,9.00
2018-07-29T00:14:25.697Z,7.67
2018-07-29T00:16:59.789Z,9.86
2018-07-29T00:19:31.201Z,10.33
2018-07-29T00:22:03.445Z,10.80
2018-07-29T00:24:36.067Z,8.00
2018-07-29T00:27:09.135Z,9.00
2018-07-29T00:29:40.511Z,10.33
2018-07-29T00:32:11.870Z,9.00
2018-07-29T00:34:45.253Z,9.00
2018-07-29T00:37:19.429Z,8.80
2018-07-29T00:39:52.111Z,8.67
2018-07-29T00:42:23.413Z,10.67
2018-07-29T00:44:54.712Z,9.00
2018-07-29T00:47:27.110Z,9.00
2018-07-29T00:50:00.162Z,9.80
2018-07-29T00:52:31.498Z,9.00
2018-07-29T00:55:05.682Z,9.00
2018-07-29T00:57:37.349Z,9.00
2018-07-29T01:00:11.148Z,10.25
2018-07-29T01:02:43.370Z,12.00
2018-07-29T01:05:15.398Z,10.25
2018-07-29T01:07:46.655Z,10.33
2018-07-29T01:10:21.190Z,9.00
2018-07-29T01:12:53.028Z,11.00
2018-07-29T01:15:25.119Z,13.00
2018-07-29T01:17:58.934Z,13.25
2018-07-29T01:20:30.250Z,13.00
2018-07-29T01:23:03.125Z,13.33
2018-07-29T01:25:35.484Z,14.33
2018-07-29T01:28:06.696Z,16.00
2018-07-29T01:30:39.227Z,16.33
2018-07-29T01:33:11.169Z,15.67
2018-07-29T01:35:42.495Z,13.00
2018-07-29T01:38:14.053Z,13.33
2018-07-29T01:40:45.299Z,14.00
2018-07-29T01:43:18.325Z,16.00
2018-07-29T01:45:49.664Z,17.00
2018-07-29T01:48:23.736Z,17.33
2018-07-29T01:50:54.482Z,15.33
2018-07-29T01:53:26.626Z,20.33
2018-07-29T01:55:56.960Z,17.33
2018-07-29T01:58:28.637Z,19.00
2018-07-29T02:00:59.002Z,17.67
2018-07-29T02:03:29.997Z,18.00
2018-07-29T02:06:00.881Z,20.33
2018-07-29T02:08:32.128Z,22.00
2018-07-29T02:11:02.526Z,17.00
2018-07-29T02:13:34.721Z,16.00
2018-07-29T02:16:07.157Z,17.00
2018-07-29T02:18:37.482Z,17.33
2018-07-29T02:21:08.056Z,19.33
2018-07-29T02:23:39.428Z,19.00
2018-07-29T02:26:10.448Z,19.00
2018-07-29T02:28:41.683Z,18.33
2018-07-29T02:31:13.861Z,20.00
2018-07-29T02:33:44.245Z,20.33
2018-07-29T02:36:15.215Z,23.33
2018-07-29T02:38:47.238Z,23.67
2018-07-29T02:41:19.498Z,25.67
2018-07-29T02:43:49.825Z,20.00
2018-07-29T02:46:20.274Z,21.00
2018-07-29T02:48:51.068Z,24.00
2018-07-29T02:51:21.882Z,21.00
2018-07-29T02:53:52.133Z,23.33
2018-07-29T02:56:22.486Z,22.00
2018-07-29T02:58:52.784Z,23.33
2018-07-29T03:01:23.800Z,21.67
2018-07-29T03:03:54.736Z,20.67
2018-07-29T03:06:25.429Z,19.67
2018-07-29T03:08:58.117Z,20.67
2018-07-29T03:11:29.415Z,19.67
2018-07-29T03:13:59.744Z,17.00
2018-07-29T03:16:32.806Z,19.67
2018-07-29T03:19:05.770Z,19.67
2018-07-29T03:21:36.172Z,19.33
2018-07-29T03:24:06.620Z,21.67
2018-07-29T03:26:37.350Z,20.67
2018-07-29T03:29:09.542Z,21.00
2018-07-29T03:31:45.041Z,20.67
2018-07-29T03:34:16.659Z,18.67
2018-07-29T03:36:46.933Z,19.00
2018-07-29T03:39:17.226Z,18.67
2018-07-29T03:41:48.089Z,17.33
2018-07-29T03:44:18.771Z,22.33
2018-07-29T03:46:49.308Z,20.67
2018-07-29T03:49:19.941Z,21.33
2018-07-29T03:51:52.642Z,19.67
2018-07-29T03:54:23.822Z,24.33
2018-07-29T03:56:56.813Z,20.33
2018-07-29T03:59:29.176Z,20.00
2018-07-29T04:02:01.406Z,19.00
2018-07-29T04:04:34.376Z,20.33
2018-07-29T04:07:05.481Z,21.33
2018-07-29T04:09:35.884Z,17.33
2018-07-29T04:12:08.136Z,15.33
2018-07-29T04:14:39.995Z,14.67
2018-07-29T04:17:12.452Z,16.67
2018-07-29T04:19:43.659Z,13.67
2018-07-29T04:22:15.115Z,15.67
2018-07-29T04:24:46.461Z,14.00
2018-07-29T04:27:18.821Z,14.33
2018-07-29T04:29:51.463Z,15.00
2018-07-29T04:32:22.783Z,16.00
2018-07-29T04:34:54.593Z,14.67
2018-07-29T04:37:26.206Z,13.33
2018-07-29T04:39:57.395Z,13.00
2018-07-29T04:42:28.757Z,12.00
2018-07-29T04:45:00.202Z,16.00
2018-07-29T04:47:32.340Z,13.00
2018-07-29T04:50:03.767Z,16.00
2018-07-29T04:52:35.223Z,14.67
2018-07-29T04:55:06.412Z,15.33
2018-07-29T04:57:37.919Z,13.33
2018-07-29T05:00:10.959Z,16.33
2018-07-29T05:02:42.230Z,17.67
2018-07-29T05:05:13.492Z,16.33
2018-07-29T05:07:45.637Z,15.67
2018-07-29T05:10:16.382Z,17.67
2018-07-29T05:12:49.039Z,16.33
2018-07-29T05:15:22.468Z,18.00
2018-07-29T05:17:54.237Z,17.67
2018-07-29T05:20:24.613Z,18.33
2018-07-29T05:22:55.336Z,22.33
2018-07-29T05:25:25.685Z,22.33
2018-07-29T05:27:56.303Z,22.67
2018-07-29T05:30:26.628Z,21.00
2018-07-29T05:32:58.807Z,23.00
2018-07-29T05:35:29.367Z,21.67
2018-07-29T05:38:00.576Z,23.00
2018-07-29T05:40:33.734Z,21.00
2018-07-29T05:43:04.161Z,22.00
2018-07-29T05:45:34.552Z,22.67
2018-07-29T05:48:05.854Z,21.00
2018-07-29T05:50:36.460Z,21.00
2018-07-29T05:53:09.095Z,19.67
2018-07-29T05:55:39.490Z,21.00
2018-07-29T05:58:10.017Z,21.00
2018-07-29T06:00:40.370Z,21.67
2018-07-29T06:03:12.567Z,23.33
2018-07-29T06:05:43.785Z,22.67
2018-07-29T06:08:16.404Z,20.67
2018-07-29T06:10:46.730Z,19.00
2018-07-29T06:13:19.097Z,21.00
2018-07-29T06:15:50.213Z,20.00
2018-07-29T06:18:21.195Z,22.33
2018-07-29T06:20:52.317Z,21.00
2018-07-29T06:23:25.597Z,20.33
2018-07-29T06:25:56.014Z,20.67
2018-07-29T06:28:28.512Z,21.67
2018-07-29T06:30:58.982Z,21.33
2018-07-29T06:33:29.845Z,22.00
2018-07-29T06:36:00.226Z,21.67
2018-07-29T06:38:33.817Z,21.67
2018-07-29T06:41:11.449Z,26.67
2018-07-29T06:43:41.824Z,19.00
2018-07-29T06:46:12.214Z,22.00
2018-07-29T06:48:43.284Z,23.67
2018-07-29T06:51:14.806Z,20.00
2018-07-29T06:53:46.291Z,22.67
2018-07-29T06:56:19.171Z,22.00
2018-07-29T06:58:52.146Z,22.67
2018-07-29T07:01:23.271Z,22.00
2018-07-29T07:03:54.434Z,22.67
2018-07-29T07:06:24.809Z,21.33
2018-07-29T07:08:55.142Z,22.33
2018-07-29T07:11:25.457Z,22.33
2018-07-29T07:13:57.699Z,18.00
2018-07-29T07:16:28.023Z,17.67
2018-07-29T07:18:59.576Z,23.00
2018-07-29T07:21:30.989Z,23.33
2018-07-29T07:24:02.070Z,23.67
2018-07-29T07:26:33.383Z,22.00
2018-07-29T07:29:03.712Z,19.00
2018-07-29T07:31:34.441Z,17.67
2018-07-29T07:34:06.696Z,19.00
2018-07-29T07:36:39.899Z,16.00
2018-07-29T07:39:12.047Z,20.00
2018-07-29T07:41:42.466Z,18.33
2018-07-29T07:44:14.009Z,14.00
2018-07-29T07:46:46.244Z,16.00
2018-07-29T07:49:17.569Z,13.00
2018-07-29T07:51:48.805Z,13.00
2018-07-29T07:54:21.060Z,11.33
2018-07-29T07:56:54.560Z,9.60
2018-07-29T07:59:26.728Z,8.80
2018-07-29T08:01:59.194Z,9.67
2018-07-29T08:04:31.840Z,10.00
2018-07-29T08:07:05.714Z,9.86
2018-07-29T08:09:37.167Z,11.00
2018-07-29T08:12:10.300Z,11.20
2018-07-29T08:14:44.479Z,12.20
2018-07-29T08:17:16.668Z,10.00
2018-07-29T08:19:48.967Z,12.00
2018-07-29T08:22:20.294Z,10.00
2018-07-29T08:24:52.383Z,11.33
2018-07-29T08:27:23.914Z,12.67
2018-07-29T08:29:55.190Z,14.00
2018-07-29T08:32:26.433Z,12.00
2018-07-29T08:35:01.819Z,12.00
2018-07-29T08:37:33.343Z,11.67
2018-07-29T08:40:04.755Z,12.67
2018-07-29T08:42:37.844Z,14.00
2018-07-29T08:45:14.438Z,14.67
2018-07-29T08:47:45.761Z,13.67
2018-07-29T08:50:19.175Z,13.00
2018-07-29T08:52:52.143Z,13.75
2018-07-29T08:55:28.139Z,12.00
2018-07-29T08:58:02.645Z,10.75
2018-07-29T09:00:33.929Z,12.00
2018-07-29T09:03:07.061Z,10.33
2018-07-29T09:05:39.581Z,11.20
2018-07-29T09:08:14.223Z,11.40
2018-07-29T09:10:48.171Z,13.25
2018-07-29T09:13:20.232Z,11.33
2018-07-29T09:15:53.585Z,10.20
2018-07-29T09:18:27.629Z,11.00
2018-07-29T09:21:00.013Z,10.00
2018-07-29T09:23:32.450Z,10.60
2018-07-29T09:26:07.355Z,10.00
2018-07-29T09:28:40.730Z,9.60
2018-07-29T09:31:12.267Z,10.33
2018-07-29T09:33:44.498Z,12.67
2018-07-29T09:36:17.308Z,10.67
2018-07-29T09:38:48.930Z,9.33
2018-07-29T09:41:20.237Z,11.00
2018-07-29T09:43:52.460Z,9.67
2018-07-29T09:46:25.441Z,10.00
2018-07-29T09:48:56.798Z,8.33
2018-07-29T09:51:29.802Z,11.00
2018-07-29T09:54:01.628Z,9.00
2018-07-29T09:56:35.875Z,11.00
2018-07-29T09:59:10.981Z,10.00
2018-07-29T10:01:42.276Z,11.00
2018-07-29T10:04:15.112Z,9.00
2018-07-29T10:06:48.848Z,11.00
2018-07-29T10:09:30.690Z,9.00
2018-07-29T10:12:02.830Z,10.40
2018-07-29T10:14:35.935Z,11.00
2018-07-29T10:17:08.517Z,11.33
2018-07-29T10:19:40.488Z,10.00
2018-07-29T10:22:13.468Z,12.67
2018-07-29T10:24:47.470Z,11.67
2018-07-29T10:27:23.524Z,11.00
2018-07-29T10:29:55.440Z,10.67
2018-07-29T10:32:28.061Z,12.60
2018-07-29T10:34:59.355Z,13.33
2018-07-29T10:37:30.592Z,13.33
2018-07-29T10:40:04.445Z,13.00
2018-07-29T10:42:36.246Z,12.33
2018-07-29T10:45:08.372Z,11.00
2018-07-29T10:47:40.711Z,10.67
2018-07-29T10:50:14.382Z,11.00
2018-07-29T10:52:45.668Z,11.00
2018-07-29T10:55:19.676Z,12.67
2018-07-29T10:57:51.712Z,11.00
2018-07-29T11:00:24.776Z,12.00
2018-07-29T11:02:58.637Z,12.00
2018-07-29T11:05:30.702Z,11.33
2018-07-29T11:08:03.602Z,11.00
2018-07-29T11:10:37.685Z,10.80
2018-07-29T11:13:09.737Z,13.00
2018-07-29T11:15:40.939Z,10.00
2018-07-29T11:18:14.221Z,10.60
2018-07-29T11:20:47.605Z,10.00
2018-07-29T11:23:21.220Z,8.17
2018-07-29T11:25:55.194Z,11.25
2018-07-29T11:28:28.324Z,10.00
2018-07-29T11:31:01.413Z,10.60
2018-07-29T11:33:36.363Z,9.40
2018-07-29T11:36:08.672Z,10.00
2018-07-29T11:38:40.189Z,11.33
2018-07-29T11:41:11.612Z,12.00
2018-07-29T11:43:45.591Z,10.60
2018-07-29T11:49:00.476Z,8.00
2018-07-29T11:51:32.844Z,10.67
2018-07-29T11:54:07.205Z,9.00
2018-07-29T11:56:42.743Z,10.00
2018-07-29T11:59:17.529Z,10.00
2018-07-29T12:01:51.336Z,8.86
2018-07-29T12:04:26.830Z,9.43
2018-07-29T12:06:59.047Z,10.20
2018-07-29T12:09:33.418Z,9.33
2018-07-29T12:12:05.435Z,9.33
2018-07-29T12:14:37.860Z,10.33
2018-07-29T12:17:12.806Z,8.67
2018-07-29T12:19:49.235Z,10.00
2018-07-29T12:22:22.781Z,9.33
2018-07-29T12:24:58.091Z,9.00
2018-07-29T12:27:32.313Z,13.00
2018-07-29T12:30:06.325Z,9.67
2018-07-29T12:32:44.240Z,10.43
2018-07-29T12:35:15.638Z,10.00
2018-07-29T12:37:55.308Z,7.00
2018-07-29T12:40:32.227Z,10.00
2018-07-29T12:43:05.212Z,9.00
2018-07-29T12:45:39.684Z,7.33
2018-07-29T12:48:15.697Z,7.33
2018-07-29T12:50:50.097Z,7.50
2018-07-29T12:53:24.960Z,8.00
2018-07-29T12:55:58.286Z,8.40
2018-07-29T12:58:36.202Z,8.00
2018-07-29T13:01:13.417Z,8.33
2018-07-29T13:03:49.664Z,7.67
2018-07-29T13:06:27.328Z,8.17
2018-07-29T13:09:06.493Z,9.33
2018-07-29T13:11:43.734Z,7.33
2018-07-29T13:14:25.556Z,9.00
2018-07-29T13:17:01.459Z,9.40
2018-07-29T13:19:36.330Z,8.17
2018-07-29T13:22:10.460Z,7.67
2018-07-29T13:24:46.271Z,8.71
2018-07-29T13:27:21.207Z,8.57
2018-07-29T13:29:56.742Z,8.86
2018-07-29T13:32:32.854Z,8.00
2018-07-29T13:35:09.378Z,8.40
2018-07-29T13:37:43.568Z,7.67
2018-07-29T13:40:17.878Z,8.40
2018-07-29T13:42:52.349Z,7.50
2018-07-29T13:45:30.331Z,8.33
2018-07-29T13:48:03.225Z,8.40
2018-07-29T13:50:35.650Z,10.33
2018-07-29T13:53:07.862Z,10.40
2018-07-29T13:55:45.345Z,8.86
2018-07-29T14:01:00.836Z,10.00
2018-07-29T14:03:34.188Z,8.33
2018-07-29T14:06:07.674Z,8.60
2018-07-29T14:08:41.301Z,9.67
2018-07-29T14:11:25.667Z,9.40
2018-07-29T14:13:59.112Z,10.00
2018-07-29T14:16:38.679Z,8.57
2018-07-29T14:19:11.691Z,9.40
2018-07-29T14:21:47.102Z,8.00
2018-07-29T14:24:21.350Z,8.00
2018-07-29T14:26:54.595Z,8.33
2018-07-29T14:29:28.188Z,7.00
2018-07-29T14:32:04.137Z,8.00
2018-07-29T14:34:37.247Z,7.50
2018-07-29T14:37:15.154Z,7.71
2018-07-29T14:39:49.964Z,7.00
2018-07-29T14:42:26.894Z,7.33
2018-07-29T14:45:06.358Z,7.83
2018-07-29T14:47:41.845Z,8.00
2018-07-29T14:50:39.101Z,7.50
2018-07-29T14:53:17.320Z,6.17
2018-07-29T14:55:51.219Z,6.33
2018-07-29T14:58:27.504Z,8.17
2018-07-29T15:01:07.106Z,6.67
2018-07-29T15:03:41.204Z,6.17
2018-07-29T15:06:21.985Z,7.33
2018-07-29T15:08:56.372Z,7.33
2018-07-29T15:11:31.389Z,7.67
2018-07-29T15:14:05.299Z,6.00
2018-07-29T15:16:39.087Z,6.17
2018-07-29T15:19:12.458Z,7.33
2018-07-29T15:21:46.166Z,8.50
2018-07-29T15:24:19.459Z,7.00
2018-07-29T15:26:54.098Z,8.29
2018-07-29T15:29:29.065Z,7.33
2018-07-29T15:32:03.316Z,6.67
2018-07-29T15:34:47.110Z,8.00
2018-07-29T15:37:21.859Z,6.50
2018-07-29T15:39:56.306Z,7.50
2018-07-29T15:42:30.306Z,8.29
2018-07-29T15:45:05.174Z,7.00
2018-07-29T15:47:38.239Z,7.83
2018-07-29T15:50:13.084Z,6.33
2018-07-29T15:52:47.800Z,8.14
2018-07-29T15:55:23.651Z,7.86
2018-07-29T15:57:57.085Z,7.83
2018-07-29T16:00:30.930Z,9.40
2018-07-29T16:03:07.386Z,7.33
2018-07-29T16:05:43.211Z,8.83
2018-07-29T16:08:17.224Z,9.67
2018-07-29T16:10:52.114Z,9.40
2018-07-29T16:13:27.790Z,10.00
2018-07-29T16:16:03.964Z,9.00
2018-07-29T16:18:44.343Z,8.00
2018-07-29T16:21:22.585Z,7.67
2018-07-29T16:23:58.109Z,7.67
2018-07-29T16:26:40.287Z,8.86
2018-07-29T16:29:15.752Z,10.00
2018-07-29T16:31:49.725Z,9.33
2018-07-29T16:34:21.740Z,9.00
2018-07-29T16:37:00.519Z,9.00
2018-07-29T16:39:34.308Z,8.67
2018-07-29T16:42:10.205Z,9.57
2018-07-29T16:44:45.541Z,6.00
2018-07-29T16:47:20.965Z,8.67
2018-07-29T16:49:54.604Z,8.33
2018-07-29T16:52:29.274Z,9.29
2018-07-29T16:55:06.449Z,6.60
2018-07-29T16:57:41.306Z,6.17
2018-07-29T17:00:16.868Z,7.67
2018-07-29T17:02:54.880Z,7.00
2018-07-29T17:05:30.520Z,7.50
2018-07-29T17:08:04.767Z,7.83
2018-07-29T17:10:39.083Z,6.83
2018-07-29T17:13:15.531Z,6.00
2018-07-29T17:15:50.496Z,8.33
2018-07-29T17:18:25.886Z,7.00
2018-07-29T17:20:59.802Z,6.00
2018-07-29T17:23:33.790Z,6.17
2018-07-29T17:26:08.090Z,5.33
2018-07-29T17:28:43.939Z,6.33
2018-07-29T17:31:18.648Z,5.50
2018-07-29T17:33:52.448Z,6.17
2018-07-29T17:36:27.039Z,5.17
2018-07-29T17:39:01.045Z,6.00
2018-07-29T17:41:40.371Z,5.83
2018-07-29T17:44:14.900Z,7.00
2018-07-29T17:46:49.272Z,5.83
2018-07-29T17:49:25.604Z,7.00
2018-07-29T17:52:00.692Z,8.33
2018-07-29T17:54:36.429Z,6.50
2018-07-29T17:57:10.543Z,6.00
2018-07-29T17:59:44.044Z,7.50
2018-07-29T18:02:21.609Z,7.50
2018-07-29T18:04:56.604Z,7.67
2018-07-29T18:07:33.843Z,7.83
2018-07-29T18:10:07.191Z,6.67
2018-07-29T18:12:43.409Z,8.33
2018-07-29T18:15:17.684Z,8.33
2018-07-29T18:17:52.477Z,8.00
2018-07-29T18:20:28.320Z,8.00
2018-07-29T18:23:06.120Z,7.00
2018-07-29T18:25:42.062Z,7.33
2018-07-29T18:28:16.851Z,8.00
2018-07-29T18:30:52.218Z,7.50
2018-07-29T18:33:26.267Z,7.67
2018-07-29T18:35:59.570Z,7.00
2018-07-29T18:38:34.006Z,7.83
2018-07-29T18:41:07.080Z,8.00
2018-07-29T18:43:41.574Z,7.33
2018-07-29T18:46:14.620Z,7.00
2018-07-29T18:48:48.668Z,7.50
2018-07-29T18:51:23.173Z,8.67
2018-07-29T18:54:04.489Z,8.57
2018-07-29T18:56:38.668Z,7.67
2018-07-29T18:59:15.293Z,7.00
2018-07-29T19:01:51.893Z,9.29
2018-07-29T19:07:10.100Z,8.50
2018-07-29T19:09:45.496Z,12.67
2018-07-29T19:12:20.783Z,8.17
2018-07-29T19:14:58.010Z,7.83
2018-07-29T19:17:36.344Z,7.83
2018-07-29T19:20:13.409Z,7.50
2018-07-29T19:22:47.215Z,7.67
2018-07-29T19:25:21.427Z,7.17
2018-07-29T19:27:56.273Z,8.83
2018-07-29T19:30:31.350Z,9.00
2018-07-29T19:33:08.580Z,9.14
2018-07-29T19:35:42.444Z,8.00
2018-07-29T19:38:17.681Z,7.17
2018-07-29T19:40:53.611Z,8.00
2018-07-29T19:43:30.041Z,8.17
2018-07-29T19:46:04.210Z,8.00
2018-07-29T19:48:44.019Z,10.00
2018-07-29T19:51:21.306Z,10.00
2018-07-29T19:53:59.463Z,8.67
2018-07-29T19:56:38.381Z,7.67
2018-07-29T19:59:11.552Z,9.33
2018-07-29T20:01:47.046Z,9.43
2018-07-29T20:04:22.276Z,8.67
2018-07-29T20:06:57.561Z,8.17
2018-07-29T20:09:32.765Z,8.50
2018-07-29T20:12:06.439Z,9.00
2018-07-29T20:14:40.063Z,8.20
2018-07-29T20:17:14.812Z,8.17
2018-07-29T20:19:47.608Z,7.00
2018-07-29T20:22:20.463Z,7.00
2018-07-29T20:24:56.620Z,9.29
2018-07-29T20:27:30.305Z,7.00
2018-07-29T20:30:03.361Z,8.00
2018-07-29T20:32:38.646Z,8.33
2018-07-29T20:35:11.742Z,8.17
2018-07-29T20:37:44.708Z,7.00
2018-07-29T20:40:18.572Z,9.43
2018-07-29T20:42:56.373Z,8.40
2018-07-29T20:45:31.458Z,9.00
2018-07-29T20:48:41.161Z,9.29
2018-07-29T20:51:16.168Z,9.80
2018-07-29T20:53:49.374Z,9.80
2018-07-29T20:56:24.387Z,8.67
2018-07-29T20:58:58.329Z,7.50
2018-07-29T21:01:36.458Z,7.00
2018-07-29T21:04:11.765Z,9.86
2018-07-29T21:06:52.485Z,9.00
2018-07-29T21:09:30.543Z,7.43
2018-07-29T21:12:06.346Z,6.00
2018-07-29T21:14:42.261Z,7.86
2018-07-29T21:17:16.625Z,9.00
2018-07-29T21:19:55.290Z,8.67
2018-07-29T21:22:36.439Z,8.83
2018-07-29T21:25:12.196Z,7.80
2018-07-29T21:27:55.850Z,9.00
2018-07-29T21:30:29.696Z,8.83
2018-07-29T21:33:03.925Z,9.00
2018-07-29T21:35:41.692Z,8.57
2018-07-29T21:38:19.191Z,9.29
2018-07-29T21:40:59.617Z,8.67
2018-07-29T21:43:35.643Z,8.71
2018-07-29T21:46:08.910Z,8.00
2018-07-29T21:48:43.595Z,7.83
2018-07-29T21:51:17.342Z,6.67
2018-07-29T21:53:51.342Z,8.50
2018-07-29T21:56:25.474Z,8.00
2018-07-29T21:58:58.558Z,8.00
2018-07-29T22:01:32.355Z,9.86
2018-07-29T22:04:06.444Z,8.33
2018-07-29T22:06:39.567Z,6.83
2018-07-29T22:09:14.148Z,7.83
2018-07-29T22:11:47.271Z,6.67
2018-07-29T22:14:19.398Z,6.40
2018-07-29T22:16:53.163Z,9.00
2018-07-29T22:19:28.163Z,9.00
2018-07-29T22:22:03.264Z,8.67
2018-07-29T22:24:36.689Z,8.67
2018-07-29T22:27:11.507Z,8.83
2018-07-29T22:29:49.950Z,8.00
2018-07-29T22:32:22.032Z,7.00
2018-07-29T22:34:58.670Z,8.00
2018-07-29T22:37:30.549Z,8.00
2018-07-29T22:40:03.887Z,8.83
2018-07-29T22:42:36.954Z,8.67
2018-07-29T22:45:11.737Z,7.83
2018-07-29T22:47:44.824Z,8.50
2018-07-29T22:50:18.989Z,9.00
2018-07-29T22:52:52.301Z,8.00
2018-07-29T22:55:25.604Z,7.83
2018-07-29T22:57:59.375Z,8.17
2018-07-29T23:00:32.750Z,9.00
2018-07-29T23:03:10.958Z,8.00
2018-07-29T23:05:44.232Z,7.83
2018-07-29T23:08:19.958Z,7.00
2018-07-29T23:10:54.053Z,9.00
2018-07-29T23:13:27.169Z,8.50
2018-07-29T23:16:01.933Z,8.50
2018-07-29T23:18:40.500Z,8.86
2018-07-29T23:21:17.040Z,10.00
2018-07-29T23:23:52.907Z,9.00
2018-07-29T23:26:29.551Z,9.43
2018-07-29T23:29:02.555Z,8.00
2018-07-29T23:31:36.022Z,9.17
2018-07-29T23:34:09.080Z,7.50
2018-07-29T23:36:41.232Z,9.00
2018-07-29T23:39:16.044Z,8.00
2018-07-29T23:41:53.484Z,9.14
2018-07-29T23:44:25.551Z,8.00
2018-07-29T23:46:59.088Z,8.00
2018-07-29T23:49:33.955Z,9.00
2018-07-29T23:52:09.395Z,9.14
2018-07-29T23:54:43.191Z,7.20
2018-07-29T23:57:16.219Z,8.50
2018-07-29T23:59:48.145Z,10.00
